LFRS Airport Information

Runway Information
Runway 03 Length 9514 ft width 148 ft
Elevation 73 ft Threshold 0 ft Heading 28
Runway 21 Length 9514 ft Width 148 ft
Elevation 86 ft Threshold 694 ft Heading 208
Airport Frequencies
Type APP Name APP Frequency 130.275 MHZ
Type ATIS Name ATIS Frequency 126.925 MHZ
Type GND Name GND Frequency 121.875 MHZ
Type INFO Name INFO Frequency 129.875 MHZ
Type TWR Name TWR Frequency 118.65 MHZ
Airport Navaids
Type NDB Name Nantes Frequency 369 KHZ
Type VOR-DME Name Nantes Frequency 115500 KHZ
Airport Weather Information & NOTAM
ADDS - METARS form results

(1645 UTC 18 November 2018)
Data provider http://aviationweather.gov/metar/data/
 
METAR text: LFRS 181630Z AUTO 05011KT 010V070 CAVOK 08/03 Q1015 TEMPO 06015G25KT
Conditions at: LFRS (NANTES/CHATEAU B, FR) observed 1630 UTC 18 November 2018
Temperature: 8.0°C (46°F)
Dewpoint: 3.0°C (37°F) [RH = 71%]
Pressure (altimeter): 29.97 inches Hg (1015.0 mb)
Winds: from the NE (50 degrees) at 13 MPH (11 knots; 5.7 m/s)
Visibility: 6 or more miles (10+ km)
Ceiling: ceiling and visibility are OK
Clouds: unknown
Weather: no significant weather observed at this time

METAR text: LFRS 181600Z AUTO 05012KT CAVOK 09/04 Q1015 TEMPO 06015G25KT
Conditions at: LFRS (NANTES/CHATEAU B, FR) observed 1600 UTC 18 November 2018
Temperature: 9.0°C (48°F)
Dewpoint: 4.0°C (39°F) [RH = 71%]
Pressure (altimeter): 29.97 inches Hg (1015.0 mb)
Winds: from the NE (50 degrees) at 14 MPH (12 knots; 6.2 m/s)
Visibility: 6 or more miles (10+ km)
Ceiling: ceiling and visibility are OK
Clouds: unknown
Weather: no significant weather observed at this time

Forecast for: LFRS (NANTES/CHATEAU B, FR)
Text: TAF LFRS 181100Z 1812/1918 06010KT CAVOK
Forecast period: 1200 UTC 18 November 2018 to 1800 UTC 19 November 2018
Forecast type: FROM: standard forecast or significant change
Winds: from the ENE (60 degrees) at 12 MPH (10 knots; 5.1 m/s)
Visibility: 6 or more miles 10+ km)
Ceiling: unknown
Clouds: missing
Weather: NSW  (no significant weather)
Text: TEMPO 1812/1818 06015G25KT
Forecast period: 1200 to 1800 UTC 18 November 2018
Forecast type: TEMPORARY: The following changes expected for less than half the time period
Winds: from the ENE (60 degrees) at 17 MPH (15 knots; 7.7 m/s)
gusting to 29 MPH (25 knots; 12.9 m/s)
Visibility: missing
Ceiling: unknown
Clouds: missing
Weather: no significant weather forecast for this period
Text: TEMPO 1912/1918 04015G25KT
Forecast period: 1200 to 1800 UTC 19 November 2018
Forecast type: TEMPORARY: The following changes expected for less than half the time period
Winds: from the NE (40 degrees) at 17 MPH (15 knots; 7.7 m/s)
gusting to 29 MPH (25 knots; 12.9 m/s)
Visibility: missing
Ceiling: unknown
Clouds: missing
Weather: no significant weather forecast for this period